Time;durP1;ratioP1;P1;durP2;ratioP2;P2;SDS_P1;SDS_P2;PMS_P1;PMS_P2;Temp;Humidity;BMP_temperature;BMP_pressure;BME280_temperature;BME280_humidity;BME280_pressure;Samples;Min_cycle;Max_cycle;Signal;HPM_P1;HPM_P2
2023/04/04 00:02:06;;;;;;;;;12.00;10.33;;;;;8.89;69.19;102083.78;5080362;28;45277;-77
2023/04/04 00:04:31;;;;;;;;;7.67;7.67;;;;;8.83;69.16;102087.78;5080225;27;45472;-77
2023/04/04 00:06:57;;;;;;;;;11.00;10.00;;;;;8.73;69.60;102073.59;5079899;27;46015;-78
2023/04/04 00:09:23;;;;;;;;;7.33;7.33;;;;;8.65;70.71;102069.78;5080200;27;45166;-77
2023/04/04 00:11:48;;;;;;;;;7.67;7.67;;;;;8.49;71.36;102054.31;5080084;28;45226;-77
2023/04/04 00:14:14;;;;;;;;;9.00;8.00;;;;;8.52;71.58;102077.91;5080025;27;45190;-77
2023/04/04 00:16:39;;;;;;;;;8.67;8.67;;;;;8.56;72.76;102091.78;5079641;27;45418;-77
2023/04/04 00:19:04;;;;;;;;;6.00;6.00;;;;;8.39;72.84;102067.50;5082348;27;45219;-77
2023/04/04 00:21:30;;;;;;;;;7.00;6.00;;;;;8.42;74.01;102083.16;5100201;27;45705;-77
2023/04/04 00:23:56;;;;;;;;;6.00;6.00;;;;;8.23;74.14;102053.84;5100407;27;45351;-77
2023/04/04 00:26:22;;;;;;;;;7.00;4.67;;;;;8.09;75.16;102039.91;5100208;27;45548;-77
2023/04/04 00:28:48;;;;;;;;;7.67;6.00;;;;;8.25;75.08;102070.41;5077252;28;45478;-77
2023/04/04 00:31:13;;;;;;;;;8.33;6.00;;;;;8.12;75.07;102057.34;5079766;28;45485;-77
2023/04/04 00:33:39;;;;;;;;;6.00;6.00;;;;;7.97;75.21;102049.69;5079831;28;45371;-77
2023/04/04 00:36:04;;;;;;;;;6.00;6.00;;;;;7.92;75.68;102052.72;5079270;28;46117;-77
2023/04/04 00:38:30;;;;;;;;;7.33;7.33;;;;;8.08;75.19;102077.94;5079723;28;45840;-77
2023/04/04 00:40:56;;;;;;;;;10.00;10.00;;;;;7.88;75.03;102055.72;5079973;28;45343;-77
2023/04/04 00:43:22;;;;;;;;;8.00;8.00;;;;;7.99;75.47;102084.00;5079698;28;45976;-77
2023/04/04 00:45:48;;;;;;;;;9.33;8.33;;;;;7.71;75.40;102052.63;5079464;28;45337;-77
2023/04/04 00:48:14;;;;;;;;;10.00;10.00;;;;;7.89;75.45;102095.31;5061089;28;45295;-76
2023/04/04 00:50:39;;;;;;;;;10.00;9.00;;;;;7.67;76.68;102072.38;5079195;28;45315;-77
2023/04/04 00:53:05;;;;;;;;;10.00;9.67;;;;;7.55;76.11;102055.66;5079313;28;45282;-78
2023/04/04 00:55:31;;;;;;;;;9.00;8.33;;;;;7.66;76.92;102081.28;5079453;28;45161;-77
2023/04/04 00:57:57;;;;;;;;;9.00;9.00;;;;;7.44;77.08;102057.38;5079552;28;45517;-76
2023/04/04 01:00:23;;;;;;;;;10.00;9.33;;;;;7.61;78.05;102083.44;5079438;28;45461;-77
2023/04/04 01:02:49;;;;;;;;;9.00;9.00;;;;;7.54;78.38;102056.66;5079089;28;45491;-77
2023/04/04 01:05:15;;;;;;;;;9.33;8.00;;;;;7.73;78.19;102086.91;5079294;28;45711;-77
2023/04/04 01:07:41;;;;;;;;;9.67;8.00;;;;;7.66;78.61;102073.34;5079191;28;45356;-78
2023/04/04 01:10:07;;;;;;;;;11.33;11.33;;;;;7.64;78.47;102075.25;5079522;28;45288;-77
2023/04/04 01:12:34;;;;;;;;;8.00;8.00;;;;;7.48;78.47;102049.19;5079137;28;45376;-77
2023/04/04 01:14:59;;;;;;;;;9.33;8.67;;;;;7.58;78.20;102066.00;5079112;28;46118;-77
2023/04/04 01:17:26;;;;;;;;;10.00;10.00;;;;;7.54;78.86;102075.16;5079233;28;45178;-77
2023/04/04 01:20:02;;;;;;;;;11.00;9.00;;;;;7.44;79.30;102075.03;5079274;28;45437;-76
2023/04/04 01:22:29;;;;;;;;;8.33;6.67;;;;;7.30;80.72;102058.44;5078752;28;45488;-77
2023/04/04 01:24:57;;;;;;;;;8.67;8.67;;;;;7.27;80.69;102050.75;5078903;28;46234;-77
2023/04/04 01:27:22;;;;;;;;;14.33;12.00;;;;;7.26;80.95;102056.16;5077802;28;45501;-77
2023/04/04 01:29:48;;;;;;;;;4.67;4.67;;;;;7.19;80.31;102061.91;5082573;28;45304;-77
2023/04/04 01:32:43;;;;;;;;;9.00;9.00;;;;;7.27;80.31;102079.00;5082634;27;45181;-77
2023/04/04 01:35:20;;;;;;;;;17.50;17.50;;;;;7.13;79.72;102048.34;5082350;27;45275;-77
2023/04/04 01:38:26;;;;;;;;;23.75;20.25;;;;;7.30;79.52;102078.75;5082163;27;45381;-77
2023/04/04 01:40:56;;;;;;;;;28.50;27.00;;;;;7.00;79.36;102036.06;5082523;27;45319;-77
2023/04/04 01:43:22;;;;;;;;;13.50;13.50;;;;;7.15;79.42;102068.41;5082151;28;45277;-77
2023/04/04 01:45:48;;;;;;;;;9.25;9.25;;;;;7.01;79.39;102045.69;5063295;28;47461;-76
2023/04/04 01:48:15;;;;;;;;;28.00;23.25;;;;;7.19;79.39;102083.06;5081243;28;45235;-77
2023/04/04 01:50:41;;;;;;;;;24.00;21.75;;;;;6.79;79.66;102026.19;5064297;28;45375;-77
2023/04/04 01:53:06;;;;;;;;;21.75;20.75;;;;;6.89;80.99;102051.91;5081862;28;45506;-76
2023/04/04 01:55:32;;;;;;;;;21.50;21.50;;;;;6.77;81.26;102040.47;5082122;28;45522;-77
2023/04/04 01:57:57;;;;;;;;;19.75;16.50;;;;;6.79;81.78;102044.69;5082243;28;45352;-77
2023/04/04 02:00:23;;;;;;;;;11.00;9.00;;;;;6.82;81.34;102056.81;5082398;28;45374;-77
2023/04/04 02:02:48;;;;;;;;;17.75;17.75;;;;;6.97;81.45;102077.78;5082077;28;45393;-77
2023/04/04 02:05:13;;;;;;;;;19.50;19.25;;;;;6.91;81.76;102079.06;5081904;28;46181;-76
2023/04/04 02:07:39;;;;;;;;;19.75;18.25;;;;;6.59;81.86;102046.22;5081601;28;45520;-77
2023/04/04 02:10:05;;;;;;;;;16.00;16.00;;;;;6.76;82.23;102078.44;5063695;28;45382;-77
2023/04/04 02:12:30;;;;;;;;;19.50;19.00;;;;;6.72;82.65;102083.09;5081812;28;45359;-77
2023/04/04 02:14:55;;;;;;;;;15.00;15.00;;;;;6.69;82.83;102088.63;5081906;28;45322;-77
2023/04/04 02:17:21;;;;;;;;;13.00;13.00;;;;;6.51;82.57;102064.41;5081867;28;45286;-77
2023/04/04 02:19:46;;;;;;;;;14.33;14.33;;;;;6.32;83.38;102044.69;5082047;28;45170;-78
2023/04/04 02:22:11;;;;;;;;;18.00;16.25;;;;;6.18;83.20;102032.50;5081518;28;45226;-77
2023/04/04 02:24:37;;;;;;;;;16.00;15.00;;;;;6.23;83.60;102048.00;5081749;28;45219;-77
2023/04/04 02:27:03;;;;;;;;;16.25;15.00;;;;;6.19;83.78;102052.63;5081576;28;45164;-78
2023/04/04 02:29:28;;;;;;;;;12.00;11.67;;;;;6.21;84.66;102058.66;5081684;28;45303;-77
2023/04/04 02:31:54;;;;;;;;;14.75;13.50;;;;;6.25;84.65;102077.75;5081363;28;45242;-77
2023/04/04 02:34:20;;;;;;;;;13.75;13.00;;;;;6.11;84.06;102052.38;5081618;27;45498;-77
2023/04/04 02:36:45;;;;;;;;;13.25;13.25;;;;;6.03;85.25;102051.13;5080964;27;45280;-77
2023/04/04 02:39:10;;;;;;;;;15.00;12.00;;;;;5.89;85.57;102038.91;5080211;28;45266;-77
2023/04/04 02:41:36;;;;;;;;;17.50;13.50;;;;;5.93;86.17;102035.09;5081782;27;45583;-77
2023/04/04 02:44:01;;;;;;;;;9.75;8.50;;;;;6.09;86.28;102063.03;5081408;27;45464;-77
2023/04/04 02:46:27;;;;;;;;;12.75;12.25;;;;;6.06;86.79;102064.13;5081568;27;45387;-77
2023/04/04 02:48:52;;;;;;;;;11.25;11.25;;;;;5.92;87.55;102051.88;5081660;27;45436;-77
2023/04/04 02:51:17;;;;;;;;;13.75;13.00;;;;;5.77;87.12;102016.03;5080974;27;45415;-77
2023/04/04 02:53:43;;;;;;;;;12.00;12.00;;;;;5.68;88.08;102015.75;5081317;27;46194;-77
2023/04/04 02:56:08;;;;;;;;;14.00;12.33;;;;;5.93;88.14;102060.66;5081307;27;45420;-77
2023/04/04 02:58:34;;;;;;;;;8.00;8.00;;;;;5.68;87.98;102017.53;5081531;28;45366;-77
2023/04/04 03:00:59;;;;;;;;;9.00;9.00;;;;;5.60;88.02;102020.72;5081092;28;45412;-77
2023/04/04 03:03:25;;;;;;;;;13.33;13.33;;;;;5.68;88.14;102033.38;5081002;28;46402;-76
2023/04/04 03:05:50;;;;;;;;;13.50;12.50;;;;;5.74;87.79;102051.41;5080947;27;45408;-76
2023/04/04 03:08:16;;;;;;;;;13.67;13.67;;;;;5.52;87.80;102012.53;5081059;28;45281;-77
2023/04/04 03:10:44;;;;;;;;;14.00;14.00;;;;;5.74;88.17;102059.31;5081182;27;45227;-77
2023/04/04 03:13:09;;;;;;;;;10.67;8.33;;;;;5.62;88.77;102052.28;5081092;27;46681;-77
2023/04/04 03:15:34;;;;;;;;;14.25;14.25;;;;;5.51;88.42;102031.97;5080950;27;45263;-77
2023/04/04 03:18:00;;;;;;;;;14.00;12.50;;;;;5.55;88.44;102041.34;5081134;28;45209;-77
2023/04/04 03:20:26;;;;;;;;;12.75;12.25;;;;;5.46;88.46;102034.91;5080819;27;45391;-76
2023/04/04 03:22:52;;;;;;;;;15.25;15.25;;;;;5.43;89.07;102046.53;5080410;27;45483;-77
2023/04/04 03:25:17;;;;;;;;;13.00;13.00;;;;;5.41;89.25;102048.41;5080903;27;45275;-77
2023/04/04 03:27:43;;;;;;;;;14.00;14.00;;;;;5.56;89.09;102069.38;5079487;28;45431;-76
2023/04/04 03:30:09;;;;;;;;;15.00;15.00;;;;;5.53;89.62;102064.31;5080628;27;45362;-77
2023/04/04 03:32:38;;;;;;;;;14.50;13.00;;;;;5.36;89.21;102058.44;5080616;28;45361;-77
2023/04/04 03:35:04;;;;;;;;;16.25;14.50;;;;;5.41;89.80;102068.66;5080714;28;45223;-76
2023/04/04 03:37:30;;;;;;;;;15.50;14.25;;;;;5.38;90.40;102072.38;5080251;28;45305;-77
2023/04/04 03:39:56;;;;;;;;;12.25;12.25;;;;;5.26;90.65;102057.38;5080299;28;45299;-77
2023/04/04 03:42:21;;;;;;;;;11.00;11.00;;;;;5.34;90.81;102070.03;5062206;28;48080;-77
2023/04/04 03:44:47;;;;;;;;;13.00;12.00;;;;;5.19;91.19;102041.16;5080571;28;45379;-76
2023/04/04 03:47:13;;;;;;;;;14.75;14.75;;;;;5.02;90.99;102021.25;5080658;28;45526;-76
2023/04/04 03:49:38;;;;;;;;;15.75;15.00;;;;;5.05;91.00;102037.69;5080326;28;45332;-77
2023/04/04 03:52:04;;;;;;;;;15.50;13.25;;;;;5.12;90.74;102048.66;5079169;28;45481;-77
2023/04/04 03:54:29;;;;;;;;;18.50;18.50;;;;;5.13;91.44;102060.91;5080418;28;45413;-77
2023/04/04 03:56:55;;;;;;;;;21.75;20.75;;;;;4.99;91.50;102042.53;5080419;28;45517;-76
2023/04/04 03:59:21;;;;;;;;;23.25;21.50;;;;;4.97;92.30;102060.25;5080384;28;45308;-77
2023/04/04 04:01:47;;;;;;;;;17.50;16.00;;;;;5.03;92.65;102067.75;5079990;28;45520;-76
2023/04/04 04:04:12;;;;;;;;;13.50;13.50;;;;;5.08;93.01;102070.03;5080133;28;45304;-76
2023/04/04 04:06:38;;;;;;;;;13.25;12.00;;;;;4.94;93.36;102048.16;5079916;28;45223;-76
2023/04/04 04:09:03;;;;;;;;;12.25;12.25;;;;;5.11;93.00;102083.88;5080212;28;45391;-77
2023/04/04 04:11:29;;;;;;;;;16.75;15.50;;;;;5.12;92.73;102068.91;5080014;28;46050;-77
2023/04/04 04:13:55;;;;;;;;;14.25;12.00;;;;;5.04;92.36;102056.25;5080173;28;45335;-77
2023/04/04 04:16:21;;;;;;;;;11.50;11.50;;;;;5.02;92.57;102072.16;5080117;28;45535;-76
2023/04/04 04:18:46;;;;;;;;;11.25;11.25;;;;;5.12;93.17;102079.44;5061640;28;45496;-76
2023/04/04 04:21:12;;;;;;;;;13.50;13.25;;;;;5.09;92.96;102085.75;5079565;28;45413;-76
2023/04/04 04:23:37;;;;;;;;;11.50;10.75;;;;;4.80;92.83;102039.38;5079992;28;47365;-77
2023/04/04 04:26:04;;;;;;;;;12.25;11.25;;;;;5.18;93.13;102111.50;5079998;28;45429;-77
2023/04/04 04:28:29;;;;;;;;;13.00;12.25;;;;;4.96;92.81;102071.72;5079681;28;46172;-77
2023/04/04 04:30:54;;;;;;;;;6.00;5.50;;;;;4.93;93.65;102076.28;5078293;28;46279;-76
2023/04/04 04:33:20;;;;;;;;;12.00;9.25;;;;;4.95;93.26;102075.31;5079717;28;45314;-76
2023/04/04 04:35:45;;;;;;;;;12.00;11.00;;;;;5.13;93.62;102121.53;5079761;28;45704;-77
2023/04/04 04:38:11;;;;;;;;;13.00;12.25;;;;;4.87;93.19;102081.09;5079550;27;45480;-77
2023/04/04 04:40:36;;;;;;;;;10.50;10.50;;;;;5.20;93.60;102129.00;5078473;28;47540;-76
2023/04/04 04:43:01;;;;;;;;;12.25;10.00;;;;;4.93;93.13;102091.22;5080018;28;45307;-77
2023/04/04 04:45:27;;;;;;;;;12.00;12.00;;;;;5.03;92.67;102094.09;5081104;28;45276;-78
2023/04/04 04:47:53;;;;;;;;;12.00;12.00;;;;;5.07;92.38;102092.94;5080986;27;45430;-77
2023/04/04 04:50:19;;;;;;;;;13.25;11.50;;;;;5.00;92.40;102087.22;5080995;27;45314;-77
2023/04/04 04:52:44;;;;;;;;;12.00;12.00;;;;;4.85;91.89;102081.19;5079410;27;45272;-78
2023/04/04 04:55:10;;;;;;;;;13.75;13.75;;;;;4.88;91.50;102091.53;5079744;28;45288;-77
2023/04/04 04:57:37;;;;;;;;;12.00;12.00;;;;;5.05;92.20;102124.66;5079646;28;45302;-77
2023/04/04 05:00:03;;;;;;;;;10.25;8.75;;;;;4.91;91.65;102106.31;5079093;27;46260;-78
2023/04/04 05:02:29;;;;;;;;;12.50;12.50;;;;;4.70;92.40;102080.44;5081225;28;45300;-78
2023/04/04 05:04:55;;;;;;;;;10.50;8.50;;;;;4.72;92.63;102069.78;5065134;28;45379;-77
2023/04/04 05:07:21;;;;;;;;;9.00;9.00;;;;;5.00;92.36;102115.38;5078021;28;45395;-77
2023/04/04 05:09:46;;;;;;;;;10.00;6.00;;;;;4.76;92.27;102073.94;5070650;28;46499;-77
2023/04/04 05:12:11;;;;;;;;;11.75;10.75;;;;;5.02;91.71;102116.13;5072948;28;45256;-78
2023/04/04 05:14:37;;;;;;;;;12.75;10.75;;;;;4.75;92.18;102077.50;5077010;28;45446;-78
2023/04/04 05:17:02;;;;;;;;;11.25;8.25;;;;;4.69;91.95;102068.22;5045058;28;45457;-77
2023/04/04 05:19:28;;;;;;;;;9.25;9.25;;;;;4.96;91.96;102108.63;5063180;28;46222;-78
2023/04/04 05:21:53;;;;;;;;;7.50;7.50;;;;;4.87;92.10;102092.50;5049007;28;45312;-77
2023/04/04 05:24:19;;;;;;;;;11.50;10.75;;;;;4.87;91.53;102084.59;5069875;28;45516;-78
2023/04/04 05:26:45;;;;;;;;;12.00;11.00;;;;;4.69;91.66;102055.06;5068838;28;45389;-78
2023/04/04 05:29:11;;;;;;;;;12.00;10.25;;;;;4.87;91.72;102087.22;5071290;28;45586;-78
2023/04/04 05:31:36;;;;;;;;;11.00;11.00;;;;;4.89;91.48;102093.25;5082817;27;45314;-78
2023/04/04 05:34:07;;;;;;;;;10.25;9.75;;;;;4.90;91.55;102091.44;5083492;27;45295;-79
2023/04/04 05:36:35;;;;;;;;;11.00;9.50;;;;;4.84;91.59;102082.16;5082555;27;45483;-78
2023/04/04 05:39:03;;;;;;;;;12.00;11.00;;;;;4.67;92.09;102052.53;5082409;27;45274;-79
2023/04/04 05:41:29;;;;;;;;;10.00;9.50;;;;;4.91;92.58;102104.50;5082587;27;45314;-79
2023/04/04 05:43:55;;;;;;;;;13.00;10.50;;;;;4.80;92.29;102092.06;5081898;27;45269;-79
2023/04/04 05:46:20;;;;;;;;;12.00;12.00;;;;;4.95;92.21;102107.78;5081905;28;45288;-78
2023/04/04 05:48:45;;;;;;;;;23.75;21.25;;;;;4.99;91.95;102117.16;5080996;28;45463;-79
2023/04/04 05:51:11;;;;;;;;;18.75;16.75;;;;;5.00;91.99;102115.38;5081567;28;45284;-79
2023/04/04 05:53:36;;;;;;;;;12.00;11.00;;;;;5.03;91.63;102118.66;5082463;28;45218;-79
2023/04/04 05:56:02;;;;;;;;;21.50;19.00;;;;;5.03;92.04;102107.28;5082246;28;45375;-80
2023/04/04 05:58:27;;;;;;;;;8.50;8.50;;;;;4.98;91.83;102098.81;5072550;28;45557;-79
2023/04/04 06:00:52;;;;;;;;;17.00;16.75;;;;;4.99;92.23;102096.09;5070835;28;45185;-79
2023/04/04 06:03:18;;;;;;;;;29.00;28.25;;;;;5.17;91.98;102119.50;5063096;28;45263;-79
2023/04/04 06:05:43;;;;;;;;;32.00;28.50;;;;;5.21;92.15;102118.34;5075754;28;45413;-80
2023/04/04 06:08:09;;;;;;;;;27.00;24.00;;;;;5.24;91.94;102117.31;5079601;28;45487;-79
2023/04/04 06:10:34;;;;;;;;;18.50;17.50;;;;;5.27;91.69;102115.28;5077727;28;45393;-78
2023/04/04 06:13:00;;;;;;;;;56.25;45.00;;;;;5.33;91.70;102113.19;5056047;28;45723;-77
2023/04/04 06:15:25;;;;;;;;;73.25;55.75;;;;;5.39;91.97;102118.03;5077178;28;45367;-77
2023/04/04 06:17:50;;;;;;;;;55.25;43.25;;;;;5.51;91.81;102127.72;5071195;28;45284;-76
2023/04/04 06:20:18;;;;;;;;;31.50;31.00;;;;;5.56;92.01;102137.97;5068668;28;46272;-75
2023/04/04 06:22:43;;;;;;;;;37.25;29.00;;;;;5.59;92.10;102140.38;5067877;28;45344;-78
2023/04/04 06:25:09;;;;;;;;;22.75;22.75;;;;;5.62;92.19;102144.59;5071933;28;54250;-79
2023/04/04 06:27:35;;;;;;;;;7.75;7.75;;;;;5.72;92.01;102152.72;5072444;28;45604;-78
2023/04/04 06:30:00;;;;;;;;;43.50;34.75;;;;;5.62;92.04;102136.69;5072064;28;45406;-77
2023/04/04 06:32:26;;;;;;;;;69.25;56.50;;;;;5.74;91.46;102148.16;5060949;28;45454;-77
2023/04/04 06:34:52;;;;;;;;;95.50;78.75;;;;;5.81;91.09;102146.81;5048494;28;46273;-77
2023/04/04 06:37:17;;;;;;;;;90.50;72.50;;;;;5.87;90.92;102153.44;5072063;28;45260;-75
2023/04/04 06:39:43;;;;;;;;;96.75;84.00;;;;;5.91;91.54;102147.84;5061381;28;50568;-78
2023/04/04 06:42:08;;;;;;;;;25.00;20.25;;;;;6.04;90.47;102162.81;5081036;28;45866;-78
2023/04/04 06:44:33;;;;;;;;;88.25;70.25;;;;;6.13;89.85;102163.97;5063064;28;45978;-78
2023/04/04 06:46:58;;;;;;;;;116.25;100.50;;;;;6.16;89.93;102169.88;5081319;28;45551;-78
2023/04/04 06:49:24;;;;;;;;;24.75;23.75;;;;;6.20;89.54;102162.59;5075511;28;45402;-77
2023/04/04 06:51:49;;;;;;;;;37.50;35.75;;;;;6.28;88.80;102181.34;5075803;28;45375;-77
2023/04/04 06:54:15;;;;;;;;;70.50;55.50;;;;;6.26;88.84;102166.59;5064739;28;45351;-78
2023/04/04 06:56:40;;;;;;;;;81.25;62.50;;;;;6.37;88.53;102177.22;5042872;28;48210;-78
2023/04/04 06:59:10;;;;;;;;;74.25;56.75;;;;;6.43;87.85;102182.06;5042817;28;45363;-78
2023/04/04 07:01:35;;;;;;;;;66.00;52.00;;;;;6.34;87.28;102164.22;5061076;28;45316;-78
2023/04/04 07:04:01;;;;;;;;;14.67;11.33;;;;;6.44;86.97;102174.97;5042830;28;47136;-77
2023/04/04 07:06:28;;;;;;;;;23.00;21.25;;;;;6.55;86.55;102184.75;5059188;28;47102;-78
2023/04/04 07:08:53;;;;;;;;;89.75;71.50;;;;;6.57;86.25;102177.56;5064046;27;45435;-78
2023/04/04 07:11:19;;;;;;;;;26.50;21.25;;;;;6.63;85.93;102174.47;5050708;28;45821;-78
2023/04/04 07:13:44;;;;;;;;;54.25;43.00;;;;;6.66;85.42;102168.97;5066109;28;45513;-77
2023/04/04 07:16:10;;;;;;;;;60.25;48.50;;;;;6.73;84.28;102171.97;5060729;28;45432;-78
2023/04/04 07:18:36;;;;;;;;;25.00;20.00;;;;;6.76;83.98;102170.94;5042532;28;45806;-77
2023/04/04 07:21:01;;;;;;;;;35.75;31.75;;;;;6.79;83.98;102168.03;5041769;28;52953;-78
2023/04/04 07:23:26;;;;;;;;;22.75;21.00;;;;;6.87;83.93;102183.34;5060505;28;45445;-78
2023/04/04 07:25:52;;;;;;;;;81.50;62.25;;;;;6.91;83.40;102168.94;5059282;28;45351;-78
2023/04/04 07:28:17;;;;;;;;;48.75;40.00;;;;;6.97;82.79;102157.06;5060237;28;45366;-79
2023/04/04 07:30:42;;;;;;;;;94.75;81.25;;;;;7.05;82.08;102168.75;5078765;28;45360;-78
2023/04/04 07:33:08;;;;;;;;;73.50;58.50;;;;;7.09;81.22;102171.16;5054300;28;52524;-79
2023/04/04 07:35:34;;;;;;;;;63.75;50.50;;;;;7.20;79.99;102189.69;5041677;28;47245;-79
2023/04/04 07:37:59;;;;;;;;;94.50;84.75;;;;;7.20;80.13;102184.41;5041846;28;45297;-79
2023/04/04 07:40:25;;;;;;;;;78.25;58.25;;;;;7.11;80.51;102158.66;5041842;28;51221;-79
2023/04/04 07:42:50;;;;;;;;;40.00;36.75;;;;;7.29;79.89;102183.72;5074035;28;45331;-79
2023/04/04 07:45:16;;;;;;;;;12.67;12.67;;;;;7.35;79.29;102181.53;5080174;28;46441;-79
2023/04/04 07:47:43;;;;;;;;;67.50;50.50;;;;;7.36;78.57;102184.06;5062173;28;45240;-79
2023/04/04 07:50:09;;;;;;;;;100.50;83.50;;;;;7.32;78.85;102164.97;5062102;28;45398;-78
2023/04/04 07:52:34;;;;;;;;;79.25;60.75;;;;;7.32;78.54;102161.47;5080198;28;45327;-79
2023/04/04 07:55:02;;;;;;;;;59.75;48.50;;;;;7.47;78.81;102170.03;5062050;28;47363;-78
2023/04/04 07:57:28;;;;;;;;;15.67;11.00;;;;;7.59;78.76;102178.81;5061946;28;45901;-79
2023/04/04 07:59:53;;;;;;;;;24.33;19.67;;;;;7.61;77.78;102170.75;5079055;28;45445;-78
2023/04/04 08:02:19;;;;;;;;;32.00;28.00;;;;;7.60;78.80;102163.81;5072990;28;45444;-78
2023/04/04 08:04:44;;;;;;;;;17.33;15.67;;;;;7.71;77.65;102161.16;5061388;28;47172;-79
2023/04/04 08:07:09;;;;;;;;;14.67;12.00;;;;;7.65;77.59;102138.66;5055596;28;45419;-79
2023/04/04 08:09:35;;;;;;;;;48.50;38.00;;;;;7.85;75.67;102161.88;5059939;28;45307;-79
2023/04/04 08:12:02;;;;;;;;;25.00;24.50;;;;;7.77;76.28;102157.16;5059814;28;45322;-79
2023/04/04 08:14:30;;;;;;;;;83.75;64.25;;;;;7.98;76.34;102169.66;5059610;28;45292;-79
2023/04/04 08:16:56;;;;;;;;;31.50;28.00;;;;;7.95;76.68;102154.88;5059802;28;45180;-79
2023/04/04 08:19:22;;;;;;;;;10.33;10.33;;;;;8.15;74.93;102163.03;5041737;28;45448;-79
2023/04/04 08:21:47;;;;;;;;;11.00;11.00;;;;;8.12;74.34;102158.84;5059447;28;45363;-79
2023/04/04 08:24:13;;;;;;;;;9.00;9.00;;;;;8.18;73.69;102158.34;5059621;28;45419;-79
2023/04/04 08:26:38;;;;;;;;;9.33;9.33;;;;;8.15;73.85;102150.66;5041247;28;47826;-78
2023/04/04 08:29:03;;;;;;;;;9.00;7.33;;;;;8.31;73.39;102166.13;5051323;28;45391;-79
2023/04/04 08:31:29;;;;;;;;;10.33;10.33;;;;;8.43;72.91;102174.91;5078527;28;46087;-79
2023/04/04 08:33:55;;;;;;;;;8.00;7.67;;;;;8.53;70.87;102176.81;5079833;27;45445;-78
2023/04/04 08:36:21;;;;;;;;;10.33;10.00;;;;;8.54;70.70;102171.41;5079184;27;45430;-78
2023/04/04 08:38:47;;;;;;;;;8.00;6.00;;;;;8.64;71.21;102183.91;5078618;28;45263;-79
2023/04/04 08:41:14;;;;;;;;;8.00;8.00;;;;;8.61;70.86;102163.78;5079798;27;45211;-78
2023/04/04 08:43:42;;;;;;;;;22.33;17.67;;;;;8.68;70.40;102151.72;5079644;27;46950;-79
2023/04/04 08:46:09;;;;;;;;;13.67;12.33;;;;;8.93;69.64;102172.69;5079663;27;45377;-78
2023/04/04 08:48:36;;;;;;;;;22.00;19.67;;;;;8.94;70.01;102167.28;5079752;27;45362;-78
2023/04/04 08:51:03;;;;;;;;;9.33;9.33;;;;;9.07;68.94;102185.63;5079379;27;45433;-77
2023/04/04 08:53:31;;;;;;;;;32.00;31.25;;;;;9.17;68.42;102190.19;5077873;28;47596;-78
2023/04/04 08:55:59;;;;;;;;;11.00;11.00;;;;;9.26;68.84;102184.09;5078093;28;45262;-78
2023/04/04 08:58:25;;;;;;;;;6.00;6.00;;;;;9.28;67.87;102176.00;5079705;27;45430;-78
2023/04/04 09:00:54;;;;;;;;;9.33;8.67;;;;;9.33;66.39;102182.59;5077929;28;46036;-78
2023/04/04 09:03:26;;;;;;;;;48.25;38.25;;;;;9.38;66.30;102168.09;5077994;28;48399;-78
2023/04/04 09:05:53;;;;;;;;;63.25;49.25;;;;;9.46;66.49;102185.03;5079119;27;45417;-78
2023/04/04 09:08:19;;;;;;;;;12.67;12.00;;;;;9.47;65.91;102176.13;5070250;28;45323;-78
2023/04/04 09:10:45;;;;;;;;;32.50;29.00;;;;;9.52;65.87;102166.94;5058903;28;45428;-79
2023/04/04 09:13:11;;;;;;;;;13.67;12.67;;;;;9.65;65.74;102179.97;5057875;28;47117;-78
2023/04/04 09:15:42;;;;;;;;;20.67;18.00;;;;;9.76;66.80;102187.00;5059268;28;45321;-77
2023/04/04 09:18:08;;;;;;;;;48.75;39.00;;;;;9.79;66.40;102178.78;5062583;28;45281;-75
2023/04/04 09:20:33;;;;;;;;;9.33;8.67;;;;;9.91;67.90;102177.69;5067836;28;45198;-73
2023/04/04 09:22:59;;;;;;;;;8.67;8.67;;;;;9.99;65.95;102179.69;5079468;28;45909;-76
2023/04/04 09:25:24;;;;;;;;;9.67;9.67;;;;;10.04;64.50;102182.78;5079948;28;50384;-77
2023/04/04 09:27:52;;;;;;;;;47.50;38.50;;;;;10.14;64.26;102174.84;5079199;28;49178;-77
2023/04/04 09:30:17;;;;;;;;;14.33;13.33;;;;;10.20;62.95;102173.44;5077573;28;46249;-76
2023/04/04 09:32:43;;;;;;;;;16.33;16.33;;;;;10.29;62.71;102171.78;5079313;28;46994;-77
2023/04/04 09:35:09;;;;;;;;;30.67;23.00;;;;;10.39;60.97;102170.00;5079909;28;45332;-78
2023/04/04 09:37:35;;;;;;;;;8.00;8.00;;;;;10.43;61.78;102181.19;5079091;28;45270;-77
2023/04/04 09:40:03;;;;;;;;;11.33;10.33;;;;;10.51;61.27;102161.91;5079529;28;45419;-79
2023/04/04 09:42:28;;;;;;;;;20.00;16.00;;;;;10.62;60.83;102167.09;5067136;28;46170;-77
2023/04/04 09:44:54;;;;;;;;;7.67;7.67;;;;;10.67;59.70;102159.56;5060228;28;45760;-77
2023/04/04 09:47:23;;;;;;;;;9.00;7.00;;;;;10.76;59.10;102157.88;5058713;28;45324;-77
2023/04/04 09:49:49;;;;;;;;;94.25;80.50;;;;;10.83;59.40;102143.03;5060812;28;45322;-77
2023/04/04 09:52:19;;;;;;;;;64.00;50.75;;;;;11.02;58.43;102169.75;5061473;28;46160;-77
2023/04/04 09:55:03;;;;;;;;;70.00;53.00;;;;;11.11;58.30;102151.09;5061849;28;45323;-78
2023/04/04 09:57:30;;;;;;;;;53.00;41.50;;;;;11.27;57.61;102162.13;5062036;28;45269;-77
2023/04/04 10:00:00;;;;;;;;;40.25;34.75;;;;;11.38;55.83;102161.13;5061463;28;45459;-79
2023/04/04 10:02:25;;;;;;;;;58.25;45.25;;;;;11.51;56.23;102169.63;5074111;28;46073;-78
2023/04/04 10:04:53;;;;;;;;;46.75;35.00;;;;;11.60;55.26;102158.13;5082680;28;45343;-77
2023/04/04 10:07:18;;;;;;;;;59.75;44.50;;;;;11.66;55.23;102143.38;5064447;28;45312;-78
2023/04/04 10:09:47;;;;;;;;;49.75;39.75;;;;;11.96;54.77;102164.53;5082476;28;45347;-78
2023/04/04 10:12:13;;;;;;;;;56.00;45.25;;;;;11.98;54.68;102154.56;5083376;28;46102;-80
2023/04/04 10:14:39;;;;;;;;;20.33;19.33;;;;;12.23;54.21;102162.88;5081869;28;45348;-79
2023/04/04 10:17:07;;;;;;;;;48.75;37.50;;;;;12.24;54.38;102133.38;5082372;28;45327;-80
2023/04/04 10:19:37;;;;;;;;;12.33;12.00;;;;;12.45;54.21;102140.25;5082060;28;45327;-79
2023/04/04 10:22:06;;;;;;;;;54.75;42.75;;;;;12.73;52.67;102172.19;5081378;28;45631;-79
2023/04/04 10:24:32;;;;;;;;;62.25;47.25;;;;;12.89;50.68;102167.97;5082456;28;45248;-78
2023/04/04 10:26:57;;;;;;;;;17.33;16.33;;;;;12.96;51.17;102171.69;5082847;28;45397;-79
2023/04/04 10:29:23;;;;;;;;;9.00;9.00;;;;;13.02;49.09;102156.88;5081172;28;46052;-79
2023/04/04 10:31:56;;;;;;;;;8.00;8.00;;;;;13.11;49.83;102168.47;5082112;27;45342;-80
2023/04/04 10:34:58;;;;;;;;;62.75;47.50;;;;;13.33;49.59;102182.28;5081406;27;45398;-77
2023/04/04 10:37:30;;;;;;;;;46.00;36.00;;;;;13.44;48.80;102174.00;5041890;28;45894;-78
2023/04/04 10:40:09;;;;;;;;;51.25;41.00;;;;;13.54;49.29;102163.25;5080054;28;46474;-78
2023/04/04 10:42:40;;;;;;;;;11.00;11.00;;;;;13.85;48.45;102172.56;5071918;28;45551;-77
2023/04/04 10:45:09;;;;;;;;;5.00;5.00;;;;;13.94;49.04;102163.59;5069527;28;45388;-78
2023/04/04 10:47:35;;;;;;;;;58.50;45.25;;;;;14.04;48.27;102167.97;5052741;28;45335;-78
2023/04/04 10:50:05;;;;;;;;;7.00;7.00;;;;;14.05;44.63;102161.59;5076776;28;45386;-76
2023/04/04 10:52:31;;;;;;;;;11.00;11.00;;;;;13.95;45.60;102161.75;5062443;28;47272;-77
2023/04/04 10:54:59;;;;;;;;;9.00;8.67;;;;;13.91;44.57;102169.25;5079860;28;45335;-77
2023/04/04 10:57:26;;;;;;;;;8.00;8.00;;;;;13.87;44.77;102166.06;5081185;28;45327;-77
2023/04/04 11:00:09;;;;;;;;;7.67;7.67;;;;;13.89;45.12;102153.38;5080919;28;45900;-77
2023/04/04 11:03:00;;;;;;;;;51.00;40.00;;;;;14.04;45.99;102150.09;5074020;28;45600;-81
2023/04/04 11:05:39;;;;;;;;;23.00;21.33;;;;;14.17;45.89;102146.94;5059735;28;45638;-78
2023/04/04 11:08:12;;;;;;;;;8.00;7.67;;;;;14.33;44.30;102159.50;5081110;28;45361;-78
2023/04/04 11:10:47;;;;;;;;;56.00;43.33;;;;;14.45;44.74;102137.78;5078228;28;45341;-78
2023/04/04 11:13:31;;;;;;;;;66.25;51.75;;;;;14.66;44.55;102142.63;5043126;28;48090;-82
2023/04/04 11:15:59;;;;;;;;;7.33;7.33;;;;;14.73;43.45;102126.75;5077497;28;45495;-80
2023/04/04 11:18:31;;;;;;;;;11.00;11.00;;;;;14.92;43.73;102141.66;5080986;28;45339;-79